Latest Coastal Weather Observations for Burnie Port

IDT60701

Issued at 5:32 am EST Monday 6 July 2015 (issued every 10 minutes, with the page automatically refreshed every 10 minutes)

About coastal observations | Map of coastal stations | Coastal observations for TAS | Marine services | Other Formats
Station Details ID: 091344 Name: BURNIE NTC AWS Lat: -41.05 Lon: 145.91 Height: 0.0 m
Data from the previous 72 hours. | See also: Recent months for locations in Tasmania
Date/Time
EST
Temp

°C
Wind Pressure Rain
since 9am
mm
Weather Cloud Vis
km
Sea
Height
m
Swell
Dir
 
Speed
knots
Gust
knots
hPa Trend Height
m
Period
s
Dir
06/05:30am 9.8 SSE 6 9 1012.3 - - - - - - - - -
06/05:00am 9.8 SSE 6 8 1012.0 - - - - - - - - -
06/04:30am 9.8 SSE 5 7 1012.1 - - - - - - - - -
06/04:00am 9.5 S 6 8 1012.3 - - - - - - - - -
06/03:30am 9.7 SE 6 8 1012.3 - - - - - - - - -
06/03:00am 9.7 SE 6 10 1012.5 - - - - - - - - -
06/02:30am 9.7 SE 7 9 1012.6 - - - - - - - - -
06/02:00am 9.8 SE 9 12 1012.5 - - - - - - - - -
06/01:30am 10.3 SE 5 6 1012.6 - - - - - - - - -
06/01:00am 10.6 SSE 5 8 1012.6 - - - - - - - - -
06/12:30am 10.4 ESE 9 11 1012.6 - - - - - - - - -
06/12:00am 10.4 ESE 10 13 1012.8 - - - - - - - - -
 
Date/Time
EST
Temp

°C
Wind Pressure Rain
since 9am
mm
Weather Cloud Vis
km
Sea
Height
m
Swell
Dir
 
Speed
knots
Gust
knots
hPa Trend Height
m
Period
s
Dir
05/11:30pm 11.1 E 6 11 1012.6 - - - - - - - - -
05/11:00pm 11.1 E 4 6 1012.8 - - - - - - - - -
05/10:30pm 11.0 CALM 0 2 1012.9 - - - - - - - - -
05/10:00pm 11.2 N 3 3 1013.0 - - - - - - - - -
05/09:30pm 11.1 N 4 5 1013.1 - - - - - - - - -
05/09:00pm 10.8 SSE 1 3 1013.2 - - - - - - - - -
05/08:30pm 11.1 WNW 3 4 1013.3 - - - - - - - - -
05/08:00pm 11.0 CALM 0 1 1013.2 - - - - - - - - -
05/07:30pm 11.4 WSW 1 3 1013.4 - - - - - - - - -
05/07:00pm 11.4 WNW 4 7 1013.3 - - - - - - - - -
05/06:30pm 11.3 SSW 3 5 1012.9 - - - - - - - - -
05/06:00pm 11.5 S 1 3 1012.7 - - - - - - - - -
05/05:30pm 11.5 SW 1 4 1012.5 - - - - - - - - -
05/05:00pm 11.7 WNW 5 8 1012.1 - - - - - - - - -
05/04:30pm 12.1 WNW 6 9 1012.1 - - - - - - - - -
05/04:00pm 12.6 WNW 7 13 1012.2 - - - - - - - - -
05/03:30pm 11.3 SW 1 1 1012.2 - - - - - - - - -
05/03:00pm 11.2 E 1 3 1012.0 - - - - - - - - -
05/02:30pm 10.9 SE 1 1 1012.2 - - - - - - - - -
05/02:00pm 10.7 SE 1 2 1012.5 - - - - - - - - -
05/01:30pm 10.7 E 2 3 1012.5 - - - - - - - - -
05/01:00pm 10.3 E 1 3 1012.8 - - - - - - - - -
05/12:30pm 10.1 E 1 2 1012.9 - - - - - - - - -
05/12:00pm 9.8 SSE 2 3 1013.1 - - - - - - - - -
05/11:30am 9.7 S 1 2 1013.4 - - - - - - - - -
05/11:00am 9.7 SE 2 4 1013.8 - - - - - - - - -
05/10:30am 9.5 SE 1 3 1014.0 - - - - - - - - -
05/10:00am 9.4 SSE 2 3 1013.8 - - - - - - - - -
05/09:30am 9.4 SSW 2 5 1013.8 - - - - - - - - -
05/09:00am 9.2 S 5 7 1013.6 - - - - - - - - -
05/08:30am 9.1 S 4 5 1013.7 - - - - - - - - -
05/08:00am 9.0 S 2 4 1014.0 - - - - - - - - -
05/07:30am 9.1 CALM 0 1 1014.1 - - - - - - - - -
05/07:00am 8.8 CALM 0 1 1013.9 - - - - - - - - -
05/06:30am 8.7 S 1 2 1014.0 - - - - - - - - -
05/06:00am 8.6 SSE 1 2 1014.0 - - - - - - - - -
05/05:30am 8.6 W 1 3 1014.0 - - - - - - - - -
05/05:00am 8.4 SSW 2 4 1014.2 - - - - - - - - -
05/04:30am 8.6 WSW 2 7 1014.4 - - - - - - - - -
05/04:00am 8.3 S 2 4 1014.5 - - - - - - - - -
05/03:30am 8.6 W 1 2 1014.9 - - - - - - - - -
05/03:00am 8.8 WSW 1 2 1015.1 - - - - - - - - -
05/02:30am 9.2 W 1 1 1015.2 - - - - - - - - -
05/02:00am 9.0 WSW 1 2 1015.4 - - - - - - - - -
05/01:30am 9.2 NW 2 4 1015.3 - - - - - - - - -
05/01:00am 9.0 W 2 4 1015.4 - - - - - - - - -
05/12:30am 8.9 SW 4 5 1015.7 - - - - - - - - -
05/12:00am 8.6 SW 3 5 1015.9 - - - - - - - - -
 
Date/Time
EST
Temp

°C
Wind Pressure Rain
since 9am
mm
Weather Cloud Vis
km
Sea
Height
m
Swell
Dir
 
Speed
knots
Gust
knots
hPa Trend Height
m
Period
s
Dir
04/11:30pm 8.7 W 2 3 1015.9 - - - - - - - - -
04/11:00pm 8.8 WSW 3 5 1016.0 - - - - - - - - -
04/10:30pm 9.0 W 4 6 1016.0 - - - - - - - - -
04/10:00pm 9.2 W 5 7 1016.1 - - - - - - - - -
04/09:30pm 9.4 WNW 3 5 1016.1 - - - - - - - - -
04/09:00pm 9.9 WNW 3 5 1016.2 - - - - - - - - -
04/08:30pm 10.0 WNW 4 5 1016.1 - - - - - - - - -
04/08:00pm 10.3 W 4 7 1016.0 - - - - - - - - -
04/07:30pm 10.5 WNW 3 5 1015.9 - - - - - - - - -
04/07:00pm 10.8 W 4 6 1015.6 - - - - - - - - -
04/06:30pm 11.0 W 3 7 1015.4 - - - - - - - - -
04/06:00pm 11.3 W 5 7 1015.2 - - - - - - - - -
04/05:30pm 11.4 WNW 5 7 1015.0 - - - - - - - - -
04/05:00pm 11.8 WSW 8 13 1014.8 - - - - - - - - -
04/04:30pm 12.5 WSW 10 17 1014.7 - - - - - - - - -
04/04:00pm 13.3 WSW 5 8 1014.4 - - - - - - - - -
04/03:30pm 13.6 WSW 9 15 1014.3 - - - - - - - - -
04/03:00pm 13.7 WSW 4 10 1013.9 - - - - - - - - -
04/02:30pm 13.8 W 5 11 1013.7 - - - - - - - - -
04/02:00pm 13.7 W 11 19 1013.7 - - - - - - - - -
04/01:30pm 13.9 WSW 9 15 1013.7 - - - - - - - - -
04/01:00pm 14.3 WSW 10 16 1013.6 - - - - - - - - -
04/12:30pm 14.0 W 10 16 1013.8 - - - - - - - - -
04/12:00pm 14.2 WSW 10 18 1014.0 - - - - - - - - -
04/11:30am 12.5 NW 10 13 1014.1 - - - - - - - - -
04/11:00am 11.9 WNW 9 13 1014.4 - - - - - - - - -
04/10:30am 11.8 WNW 11 15 1014.4 - - - - - - - - -
04/10:00am 11.9 WNW 8 11 1014.2 - - - - - - - - -
04/09:30am 11.7 WNW 8 12 1014.1 - - - - - - - - -
04/09:00am 11.6 WNW 7 11 1014.0 - - - - - - - - -
04/08:30am 11.9 W 8 13 1014.0 - - - - - - - - -
04/08:00am 11.6 WNW 8 12 1013.8 - - - - - - - - -
04/07:30am 11.7 WNW 6 11 1013.9 - - - - - - - - -
04/07:00am 11.8 W 6 10 1013.9 - - - - - - - - -
04/06:30am 11.4 WNW 6 10 1013.7 - - - - - - - - -
04/06:00am 10.9 WNW 7 11 1013.4 - - - - - - - - -
04/05:30am 10.8 WNW 9 14 1013.4 - - - - - - - - -
04/05:00am 10.5 WNW 6 10 1013.7 - - - - - - - - -
04/04:30am 10.6 WNW 7 11 1013.8 - - - - - - - - -
04/04:00am 10.3 WNW 8 12 1014.2 - - - - - - - - -
04/03:30am 10.1 WNW 7 13 1014.6 - - - - - - - - -
04/03:00am 10.0 WNW 7 11 1015.0 - - - - - - - - -
04/02:30am 9.7 WNW 6 11 1015.4 - - - - - - - - -
04/02:00am 9.5 WNW 5 9 1015.8 - - - - - - - - -
04/01:30am 9.1 WNW 5 9 1016.1 - - - - - - - - -
04/01:00am 8.5 WNW 5 9 1016.4 - - - - - - - - -
04/12:30am 8.5 WNW 5 8 1016.9 - - - - - - - - -
04/12:00am 8.3 WNW 4 6 1017.4 - - - - - - - - -
 
Date/Time
EST
Temp

°C
Wind Pressure Rain
since 9am
mm
Weather Cloud Vis
km
Sea
Height
m
Swell
Dir
 
Speed
knots
Gust
knots
hPa Trend Height
m
Period
s
Dir
03/11:30pm 8.5 W 3 5 1017.9 - - - - - - - - -
03/11:00pm 7.5 SW 3 4 1018.2 - - - - - - - - -
03/10:30pm 7.8 WNW 2 4 1018.4 - - - - - - - - -
03/10:00pm 7.8 WNW 3 4 1018.9 - - - - - - - - -
03/09:30pm 8.0 W 4 7 1019.1 - - - - - - - - -
03/09:00pm 8.0 WNW 5 8 1019.3 - - - - - - - - -
03/08:30pm 8.1 W 5 9 1019.6 - - - - - - - - -
03/08:00pm 7.9 W 6 11 1019.8 - - - - - - - - -
03/07:30pm 7.9 W 8 11 1020.0 - - - - - - - - -
03/07:00pm 8.0 W 7 13 1020.1 - - - - - - - - -
03/06:30pm 8.1 W 6 10 1020.3 - - - - - - - - -
03/06:00pm 8.3 W 7 12 1020.5 - - - - - - - - -
03/05:30pm 8.5 W 9 13 1020.3 - - - - - - - - -
03/05:00pm 8.9 W 8 15 1020.4 - - - - - - - - -
03/04:30pm 9.4 W 9 18 1020.8 - - - - - - - - -
03/04:00pm 9.9 W 10 20 1020.7 - - - - - - - - -

Other Formats:

Comma delimited format used in spreadsheet applications
http://www.bom.gov.au/fwo/IDT60701/IDT60701.95963.axf

JavaScript Object Notation format (JSON) in row-major order
http://www.bom.gov.au/fwo/IDT60701/IDT60701.95963.json